createdAt,value
2023-04-16T00:00:27.908Z,23.21
2023-04-16T00:01:27.874Z,23.21
2023-04-16T00:02:28.033Z,23.21
2023-04-16T00:03:28.052Z,23.21
2023-04-16T00:04:27.964Z,23.19
2023-04-16T00:05:27.852Z,23.18
2023-04-16T00:06:27.839Z,23.19
2023-04-16T00:07:27.819Z,23.18
2023-04-16T00:08:27.872Z,23.21
2023-04-16T00:09:27.821Z,23.19
2023-04-16T00:10:27.808Z,23.19
2023-04-16T00:11:27.827Z,23.18
2023-04-16T00:12:27.827Z,23.19
2023-04-16T00:13:27.798Z,23.19
2023-04-16T00:14:27.771Z,23.18
2023-04-16T00:15:27.794Z,23.18
2023-04-16T00:16:27.905Z,23.19
2023-04-16T00:17:27.804Z,23.21
2023-04-16T00:18:27.754Z,23.17
2023-04-16T00:19:27.757Z,23.19
2023-04-16T00:20:27.772Z,23.19
2023-04-16T00:21:27.884Z,23.19
2023-04-16T00:22:27.720Z,23.18
2023-04-16T00:23:27.796Z,23.17
2023-04-16T00:24:27.721Z,23.17
2023-04-16T00:25:27.722Z,23.22
2023-04-16T00:26:27.717Z,23.19
2023-04-16T00:27:27.686Z,23.18
2023-04-16T00:28:27.735Z,23.18
2023-04-16T00:29:27.701Z,23.18
2023-04-16T00:30:27.696Z,23.18
2023-04-16T00:31:27.741Z,23.18
2023-04-16T00:32:27.679Z,23.21
2023-04-16T00:33:27.695Z,23.19
2023-04-16T00:34:27.656Z,23.18
2023-04-16T00:35:27.637Z,23.19
2023-04-16T00:36:27.687Z,23.18
2023-04-16T00:37:27.631Z,23.18
2023-04-16T00:38:27.646Z,23.18
2023-04-16T00:39:27.620Z,23.19
2023-04-16T00:40:27.599Z,23.18
2023-04-16T00:41:27.598Z,23.17
2023-04-16T00:42:27.654Z,23.17
2023-04-16T00:43:27.597Z,23.19
2023-04-16T00:44:27.620Z,23.18
2023-04-16T00:45:27.588Z,23.17
2023-04-16T00:46:27.648Z,23.18
2023-04-16T00:47:27.648Z,23.18
2023-04-16T00:48:28.379Z,23.15
2023-04-16T00:49:27.555Z,23.17
2023-04-16T00:50:27.554Z,23.18
2023-04-16T00:51:27.558Z,23.15
2023-04-16T00:52:27.548Z,23.18
2023-04-16T00:53:27.530Z,23.15
2023-04-16T00:54:27.493Z,23.15
2023-04-16T00:55:27.501Z,23.17
2023-04-16T00:56:27.491Z,23.15
2023-04-16T00:57:27.487Z,23.17
2023-04-16T00:58:27.527Z,23.18
2023-04-16T00:59:27.460Z,23.14
2023-04-16T01:00:27.484Z,23.15
2023-04-16T01:01:27.482Z,23.15
2023-04-16T01:02:27.607Z,23.15
2023-04-16T01:03:27.559Z,23.17
2023-04-16T01:04:27.455Z,23.15
2023-04-16T01:05:27.440Z,23.17
2023-04-16T01:06:27.466Z,23.14
2023-04-16T01:07:27.410Z,23.17
2023-04-16T01:08:27.418Z,23.15
2023-04-16T01:09:27.417Z,23.17
2023-04-16T01:10:27.388Z,23.15
2023-04-16T01:11:27.375Z,23.15
2023-04-16T01:12:27.360Z,23.14
2023-04-16T01:13:27.383Z,23.14
2023-04-16T01:14:27.379Z,23.17
2023-04-16T01:15:27.369Z,23.15
2023-04-16T01:16:27.432Z,23.15
2023-04-16T01:17:27.374Z,23.14
2023-04-16T01:18:27.371Z,23.15
2023-04-16T01:19:27.320Z,23.14
2023-04-16T01:20:27.317Z,23.15
2023-04-16T01:21:27.346Z,23.14
2023-04-16T01:22:27.309Z,23.15
2023-04-16T01:23:27.316Z,23.14
2023-04-16T01:24:27.322Z,23.14
2023-04-16T01:25:27.278Z,23.17
2023-04-16T01:26:27.267Z,23.14
2023-04-16T01:27:27.291Z,23.12
2023-04-16T01:28:27.261Z,23.12
2023-04-16T01:29:27.253Z,23.12
2023-04-16T01:30:27.246Z,23.12
2023-04-16T01:31:27.277Z,23.14
2023-04-16T01:32:27.256Z,23.15
2023-04-16T01:33:27.252Z,23.14
2023-04-16T01:34:27.231Z,23.15
2023-04-16T01:35:27.237Z,23.14
2023-04-16T01:36:27.206Z,23.12
2023-04-16T01:37:27.231Z,23.12
2023-04-16T01:38:27.190Z,23.11
2023-04-16T01:39:27.190Z,23.12
2023-04-16T01:40:27.229Z,23.12
2023-04-16T01:41:27.214Z,23.12
2023-04-16T01:42:27.186Z,23.12
2023-04-16T01:43:27.171Z,23.12
2023-04-16T01:44:27.181Z,23.12
2023-04-16T01:45:27.142Z,23.12
2023-04-16T01:46:27.179Z,23.12
2023-04-16T01:47:27.149Z,23.12
2023-04-16T01:48:27.145Z,23.12
2023-04-16T01:49:27.110Z,23.11
2023-04-16T01:50:27.163Z,23.14
2023-04-16T01:51:27.106Z,23.12
2023-04-16T01:52:27.098Z,23.11
2023-04-16T01:53:27.086Z,23.12
2023-04-16T01:54:27.095Z,23.14
2023-04-16T01:55:27.161Z,23.12
2023-04-16T01:56:27.171Z,23.12
2023-04-16T01:57:27.143Z,23.12
2023-04-16T01:58:27.185Z,23.11
2023-04-16T01:59:27.194Z,23.12
2023-04-16T02:00:27.186Z,23.12
2023-04-16T02:01:27.229Z,23.14
2023-04-16T02:02:27.478Z,23.14
2023-04-16T02:03:27.428Z,23.11
2023-04-16T02:04:27.272Z,23.14
2023-04-16T02:05:27.288Z,23.12
2023-04-16T02:06:27.299Z,23.10
2023-04-16T02:07:27.292Z,23.12
2023-04-16T02:08:27.341Z,23.10
2023-04-16T02:09:27.324Z,23.10
2023-04-16T02:10:27.363Z,23.12
2023-04-16T02:11:27.338Z,23.10
2023-04-16T02:12:27.368Z,23.12
2023-04-16T02:13:27.411Z,23.10
2023-04-16T02:14:27.442Z,23.10
2023-04-16T02:15:27.436Z,23.14
2023-04-16T02:16:27.453Z,23.08
2023-04-16T02:17:27.521Z,23.11
2023-04-16T02:18:27.453Z,23.11
2023-04-16T02:19:27.483Z,23.11
2023-04-16T02:20:27.533Z,23.10
2023-04-16T02:21:27.545Z,23.10
2023-04-16T02:22:27.624Z,23.11
2023-04-16T02:23:27.586Z,23.11
2023-04-16T02:24:27.591Z,23.11
2023-04-16T02:25:27.581Z,23.10
2023-04-16T02:26:27.590Z,23.10
2023-04-16T02:27:27.616Z,23.10
2023-04-16T02:28:27.622Z,23.11
2023-04-16T02:29:27.675Z,23.08
2023-04-16T02:30:27.632Z,23.11
2023-04-16T02:31:27.713Z,23.11
2023-04-16T02:32:27.690Z,23.11
2023-04-16T02:33:27.727Z,23.10
2023-04-16T02:34:27.715Z,23.07
2023-04-16T02:35:27.715Z,23.10
2023-04-16T02:36:27.750Z,23.11
2023-04-16T02:37:27.753Z,23.08
2023-04-16T02:38:27.840Z,23.10
2023-04-16T02:39:27.794Z,23.10
2023-04-16T02:40:27.803Z,23.11
2023-04-16T02:41:27.838Z,23.10
2023-04-16T02:42:27.862Z,23.07
2023-04-16T02:43:27.858Z,23.08
2023-04-16T02:44:27.909Z,23.10
2023-04-16T02:45:27.902Z,23.10
2023-04-16T02:46:28.004Z,23.08
2023-04-16T02:47:27.954Z,23.08
2023-04-16T02:48:27.942Z,23.08
2023-04-16T02:49:27.942Z,23.10
2023-04-16T02:50:27.968Z,23.10
2023-04-16T02:51:27.993Z,23.08
2023-04-16T02:52:28.003Z,23.08
2023-04-16T02:53:28.074Z,23.11
2023-04-16T02:54:28.068Z,23.11
2023-04-16T02:55:28.050Z,23.07
2023-04-16T02:56:28.079Z,23.10
2023-04-16T02:57:28.149Z,23.05
2023-04-16T02:58:28.222Z,23.04
2023-04-16T02:59:28.125Z,23.10
2023-04-16T03:00:28.148Z,23.10
2023-04-16T03:01:28.204Z,23.10
2023-04-16T03:02:28.266Z,23.10
2023-04-16T03:03:28.307Z,23.08
2023-04-16T03:04:28.249Z,23.08
2023-04-16T03:05:28.286Z,23.05
2023-04-16T03:06:28.300Z,23.08
2023-04-16T03:07:28.308Z,23.10
2023-04-16T03:08:28.343Z,23.08
2023-04-16T03:09:28.358Z,23.07
2023-04-16T03:10:28.382Z,23.08
2023-04-16T03:11:28.408Z,23.10
2023-04-16T03:12:28.409Z,23.08
2023-04-16T03:13:28.426Z,23.10
2023-04-16T03:14:28.427Z,23.05
2023-04-16T03:15:28.506Z,23.05
2023-04-16T03:16:28.482Z,23.07
2023-04-16T03:17:28.537Z,23.07
2023-04-16T03:18:28.525Z,23.10
2023-04-16T03:19:28.564Z,23.10
2023-04-16T03:20:28.563Z,23.07
2023-04-16T03:21:28.589Z,23.07
2023-04-16T03:22:28.613Z,23.07
2023-04-16T03:23:28.886Z,23.04
2023-04-16T03:24:28.647Z,23.07
2023-04-16T03:25:28.649Z,23.07
2023-04-16T03:26:28.676Z,23.07
2023-04-16T03:27:28.713Z,23.07
2023-04-16T03:28:28.778Z,23.07
2023-04-16T03:29:28.681Z,23.07
2023-04-16T03:30:28.722Z,23.07
2023-04-16T03:31:28.761Z,23.07
2023-04-16T03:32:28.767Z,23.07
2023-04-16T03:33:28.856Z,23.05
2023-04-16T03:34:28.758Z,23.04
2023-04-16T03:35:28.790Z,23.05
2023-04-16T03:36:28.880Z,23.07
2023-04-16T03:37:28.835Z,23.07
2023-04-16T03:38:28.903Z,23.05
2023-04-16T03:39:28.923Z,23.05
2023-04-16T03:40:28.902Z,23.05
2023-04-16T03:41:28.920Z,23.05
2023-04-16T03:42:28.928Z,23.04
2023-04-16T03:43:28.952Z,23.07
2023-04-16T03:44:28.972Z,23.05
2023-04-16T03:45:28.993Z,23.02
2023-04-16T03:46:29.030Z,23.05
2023-04-16T03:47:29.052Z,23.07
2023-04-16T03:48:29.060Z,23.05
2023-04-16T03:49:29.069Z,23.04
2023-04-16T03:50:29.088Z,23.02
2023-04-16T03:51:29.095Z,23.04
2023-04-16T03:52:29.125Z,23.04
2023-04-16T03:53:29.200Z,23.04
2023-04-16T03:54:29.143Z,23.05
2023-04-16T03:55:29.183Z,23.04
2023-04-16T03:56:29.203Z,23.04
2023-04-16T03:57:29.205Z,23.05
2023-04-16T03:58:29.443Z,23.05
2023-04-16T03:59:29.245Z,23.04
2023-04-16T04:00:29.317Z,23.04
2023-04-16T04:01:29.293Z,23.02
2023-04-16T04:02:29.401Z,23.04
2023-04-16T04:03:29.622Z,23.04
2023-04-16T04:04:29.441Z,23.04
2023-04-16T04:05:29.360Z,23.04
2023-04-16T04:06:29.393Z,23.04
2023-04-16T04:07:29.480Z,23.02
2023-04-16T04:08:29.462Z,23.05
2023-04-16T04:09:29.488Z,23.04
2023-04-16T04:10:29.482Z,23.04
2023-04-16T04:11:29.531Z,23.02
2023-04-16T04:12:29.531Z,23.04
2023-04-16T04:13:29.612Z,23.05
2023-04-16T04:14:29.584Z,23.02
2023-04-16T04:15:29.642Z,23.01
2023-04-16T04:16:29.653Z,23.04
2023-04-16T04:17:29.647Z,23.01
2023-04-16T04:18:29.662Z,23.04
2023-04-16T04:19:29.674Z,23.04
2023-04-16T04:20:30.452Z,23.02
2023-04-16T04:21:29.700Z,23.01
2023-04-16T04:22:29.771Z,23.02
2023-04-16T04:23:29.790Z,23.04
2023-04-16T04:24:29.771Z,23.02
2023-04-16T04:25:29.834Z,23.02
2023-04-16T04:26:29.918Z,23.02
2023-04-16T04:27:29.874Z,23.02
2023-04-16T04:28:29.882Z,23.01
2023-04-16T04:29:29.896Z,23.02
2023-04-16T04:30:29.921Z,23.02
2023-04-16T04:31:29.979Z,23.02
2023-04-16T04:32:30.018Z,23.01
2023-04-16T04:33:30.036Z,23.01
2023-04-16T04:34:30.010Z,23.02
2023-04-16T04:35:30.056Z,23.01
2023-04-16T04:36:30.050Z,23.04
2023-04-16T04:37:30.101Z,23.01
2023-04-16T04:38:30.119Z,23.01
2023-04-16T04:39:30.130Z,23.01
2023-04-16T04:40:30.157Z,23.01
2023-04-16T04:41:30.198Z,23.00
2023-04-16T04:42:30.246Z,23.01
2023-04-16T04:43:30.312Z,23.02
2023-04-16T04:44:30.267Z,23.01
2023-04-16T04:45:31.933Z,23.00
2023-04-16T04:46:30.316Z,23.02
2023-04-16T04:47:30.363Z,22.98
2023-04-16T04:48:30.485Z,23.00
2023-04-16T04:49:30.390Z,23.02
2023-04-16T04:50:30.390Z,22.98
2023-04-16T04:51:30.414Z,23.00
2023-04-16T04:52:30.472Z,23.00
2023-04-16T04:53:30.501Z,23.01
2023-04-16T04:54:30.505Z,23.00
2023-04-16T04:55:30.530Z,23.01
2023-04-16T04:56:30.558Z,23.01
2023-04-16T04:57:30.566Z,23.01
2023-04-16T04:58:30.597Z,23.00
2023-04-16T04:59:30.659Z,23.02
2023-04-16T05:00:30.631Z,23.00
2023-04-16T05:01:30.675Z,23.01
2023-04-16T05:02:30.768Z,23.00
2023-04-16T05:03:30.805Z,23.01
2023-04-16T05:04:30.745Z,22.98
2023-04-16T05:05:30.772Z,23.01
2023-04-16T05:06:30.777Z,23.00
2023-04-16T05:07:30.810Z,23.00
2023-04-16T05:08:30.841Z,22.98
2023-04-16T05:09:31.061Z,23.01
2023-04-16T05:10:30.866Z,22.98
2023-04-16T05:11:30.885Z,22.98
2023-04-16T05:12:30.905Z,23.00
2023-04-16T05:13:30.934Z,23.01
2023-04-16T05:14:30.948Z,23.01
2023-04-16T05:15:30.974Z,22.98
2023-04-16T05:16:31.070Z,23.00
2023-04-16T05:17:31.084Z,23.00
2023-04-16T05:18:31.073Z,22.98
2023-04-16T05:19:31.093Z,22.98
2023-04-16T05:20:31.108Z,22.98
2023-04-16T05:21:31.147Z,23.01
2023-04-16T05:22:31.147Z,22.95
2023-04-16T05:23:31.164Z,23.00
2023-04-16T05:24:31.193Z,23.01
2023-04-16T05:25:31.192Z,23.01
2023-04-16T05:26:31.227Z,23.00
2023-04-16T05:27:31.242Z,22.98
2023-04-16T05:28:31.300Z,23.02
2023-04-16T05:29:31.321Z,22.98
2023-04-16T05:30:31.455Z,23.00
2023-04-16T05:31:31.357Z,22.98
2023-04-16T05:32:31.393Z,23.00
2023-04-16T05:33:31.397Z,22.98
2023-04-16T05:34:31.407Z,23.00
2023-04-16T05:35:31.431Z,22.97
2023-04-16T05:36:31.452Z,23.00
2023-04-16T05:37:31.475Z,22.97
2023-04-16T05:38:31.539Z,22.98
2023-04-16T05:39:31.614Z,23.00
2023-04-16T05:40:31.535Z,22.98
2023-04-16T05:41:31.566Z,22.98
2023-04-16T05:42:31.627Z,22.98
2023-04-16T05:43:31.624Z,22.98
2023-04-16T05:44:31.681Z,22.97
2023-04-16T05:45:31.671Z,22.98
2023-04-16T05:46:31.714Z,23.00
2023-04-16T05:47:31.748Z,22.98
2023-04-16T05:48:31.759Z,23.01
2023-04-16T05:49:31.797Z,22.98
2023-04-16T05:50:31.796Z,22.98
2023-04-16T05:51:31.820Z,22.98
2023-04-16T05:52:31.849Z,23.00
2023-04-16T05:53:31.867Z,23.00
2023-04-16T05:54:31.878Z,22.98
2023-04-16T05:55:31.891Z,23.01
2023-04-16T05:56:31.972Z,22.97
2023-04-16T05:57:31.944Z,22.97
2023-04-16T05:58:32.933Z,22.98
2023-04-16T05:59:32.045Z,22.98
2023-04-16T06:00:31.997Z,22.97
2023-04-16T06:01:34.263Z,22.97
2023-04-16T06:02:32.198Z,22.94
2023-04-16T06:03:32.155Z,22.97
2023-04-16T06:04:32.128Z,22.97
2023-04-16T06:05:32.172Z,22.97
2023-04-16T06:06:32.144Z,22.97
2023-04-16T06:07:32.163Z,22.95
2023-04-16T06:08:32.225Z,22.98
2023-04-16T06:09:32.229Z,22.95
2023-04-16T06:10:32.242Z,22.98
2023-04-16T06:11:32.918Z,22.97
2023-04-16T06:12:32.258Z,22.98
2023-04-16T06:13:32.280Z,22.97
2023-04-16T06:14:32.317Z,22.97
2023-04-16T06:15:32.377Z,22.97
2023-04-16T06:16:32.402Z,22.97
2023-04-16T06:17:32.452Z,22.95
2023-04-16T06:18:32.428Z,22.97
2023-04-16T06:19:32.454Z,23.00
2023-04-16T06:20:32.463Z,22.97
2023-04-16T06:21:32.475Z,22.97
2023-04-16T06:22:32.501Z,22.95
2023-04-16T06:23:32.515Z,23.00
2023-04-16T06:24:32.552Z,22.94
2023-04-16T06:25:32.599Z,22.94
2023-04-16T06:26:32.593Z,22.95
2023-04-16T06:27:32.611Z,22.95
2023-04-16T06:28:32.658Z,22.95
2023-04-16T06:29:40.628Z,22.95
2023-04-16T06:30:33.665Z,22.97
2023-04-16T06:31:32.744Z,22.94
2023-04-16T06:32:32.676Z,22.95
2023-04-16T06:33:32.650Z,22.95
2023-04-16T06:34:32.639Z,22.97
2023-04-16T06:35:32.615Z,22.97
2023-04-16T06:36:32.607Z,22.97
2023-04-16T06:37:32.619Z,22.97
2023-04-16T06:38:32.636Z,22.97
2023-04-16T06:39:32.627Z,22.95
2023-04-16T06:40:32.609Z,22.95
2023-04-16T06:41:32.596Z,22.97
2023-04-16T06:42:32.605Z,22.97
2023-04-16T06:43:32.577Z,22.95
2023-04-16T06:44:32.609Z,22.97
2023-04-16T06:45:32.567Z,22.97
2023-04-16T06:46:32.640Z,22.97
2023-04-16T06:47:32.558Z,22.97
2023-04-16T06:48:32.521Z,22.95
2023-04-16T06:49:32.533Z,22.98
2023-04-16T06:50:32.550Z,22.97
2023-04-16T06:51:32.519Z,22.95
2023-04-16T06:52:32.550Z,22.97
2023-04-16T06:53:32.585Z,22.95
2023-04-16T06:54:32.566Z,22.97
2023-04-16T06:55:33.472Z,22.95
2023-04-16T06:56:32.610Z,22.97
2023-04-16T06:57:32.651Z,22.97
2023-04-16T06:58:32.646Z,22.98
2023-04-16T06:59:32.695Z,22.95
2023-04-16T07:00:32.717Z,22.97
2023-04-16T07:01:32.753Z,22.97
2023-04-16T07:02:32.950Z,22.98
2023-04-16T07:03:32.944Z,22.98
2023-04-16T07:04:32.832Z,22.98
2023-04-16T07:05:32.822Z,22.97
2023-04-16T07:06:32.852Z,22.97
2023-04-16T07:07:32.883Z,22.98
2023-04-16T07:08:32.910Z,22.97
2023-04-16T07:09:32.901Z,22.97
2023-04-16T07:10:32.945Z,22.98
2023-04-16T07:11:32.946Z,22.97
2023-04-16T07:12:32.967Z,22.97
2023-04-16T07:13:32.978Z,22.97
2023-04-16T07:14:33.033Z,22.97
2023-04-16T07:15:33.052Z,22.95
2023-04-16T07:16:33.132Z,22.98
2023-04-16T07:17:33.072Z,23.00
2023-04-16T07:18:33.084Z,22.95
2023-04-16T07:19:33.095Z,22.97
2023-04-16T07:20:33.133Z,22.98
2023-04-16T07:21:33.126Z,22.98
2023-04-16T07:22:33.181Z,22.97
2023-04-16T07:23:33.192Z,22.95
2023-04-16T07:24:33.223Z,22.97
2023-04-16T07:25:33.257Z,22.98
2023-04-16T07:26:33.228Z,22.98
2023-04-16T07:27:33.248Z,22.95
2023-04-16T07:28:33.284Z,22.98
2023-04-16T07:29:33.303Z,23.00
2023-04-16T07:30:33.305Z,22.97
2023-04-16T07:31:33.376Z,22.98
2023-04-16T07:32:33.439Z,22.98
2023-04-16T07:33:33.377Z,23.00
2023-04-16T07:34:33.419Z,23.01
2023-04-16T07:35:33.475Z,23.00
2023-04-16T07:36:33.454Z,22.98
2023-04-16T07:37:33.497Z,22.98
2023-04-16T07:38:33.490Z,23.00
2023-04-16T07:39:33.530Z,23.00
2023-04-16T07:40:33.554Z,22.98
2023-04-16T07:41:33.563Z,23.00
2023-04-16T07:42:33.562Z,22.98
2023-04-16T07:43:33.598Z,23.00
2023-04-16T07:44:33.614Z,22.98
2023-04-16T07:45:33.666Z,23.00
2023-04-16T07:46:45.620Z,22.98
2023-04-16T07:47:34.652Z,23.00
2023-04-16T07:48:33.663Z,23.00
2023-04-16T07:49:33.641Z,23.01
2023-04-16T07:50:33.616Z,23.02
2023-04-16T07:51:33.642Z,23.00
2023-04-16T07:52:33.605Z,22.98
2023-04-16T07:53:33.618Z,23.02
2023-04-16T07:54:33.588Z,22.98
2023-04-16T07:55:33.580Z,23.02
2023-04-16T07:56:33.586Z,23.04
2023-04-16T07:57:33.590Z,22.98
2023-04-16T07:58:33.554Z,23.00
2023-04-16T07:59:33.582Z,23.02
2023-04-16T08:00:33.555Z,23.01
2023-04-16T08:01:33.540Z,23.01
2023-04-16T08:02:33.669Z,23.01
2023-04-16T08:03:33.812Z,23.01
2023-04-16T08:04:33.705Z,23.01
2023-04-16T08:05:33.522Z,23.00
2023-04-16T08:06:33.513Z,23.00
2023-04-16T08:07:34.796Z,23.01
2023-04-16T08:08:33.495Z,23.01
2023-04-16T08:09:33.485Z,23.00
2023-04-16T08:10:33.508Z,23.01
2023-04-16T08:11:33.539Z,23.00
2023-04-16T08:12:33.554Z,22.98
2023-04-16T08:13:33.853Z,23.01
2023-04-16T08:14:33.572Z,23.00
2023-04-16T08:15:33.674Z,23.00
2023-04-16T08:16:33.631Z,23.02
2023-04-16T08:17:33.693Z,23.00
2023-04-16T08:18:33.705Z,23.00
2023-04-16T08:19:33.712Z,23.01
2023-04-16T08:20:33.713Z,22.98
2023-04-16T08:21:33.732Z,23.00
2023-04-16T08:22:33.764Z,23.01
2023-04-16T08:23:33.829Z,23.01
2023-04-16T08:24:33.781Z,22.98
2023-04-16T08:25:33.787Z,23.01
2023-04-16T08:26:33.835Z,23.00
2023-04-16T08:27:33.846Z,23.00
2023-04-16T08:28:33.856Z,23.00
2023-04-16T08:29:33.872Z,22.97
2023-04-16T08:30:33.914Z,23.02
2023-04-16T08:31:33.937Z,23.01
2023-04-16T08:32:33.953Z,23.01
2023-04-16T08:33:33.952Z,23.00
2023-04-16T08:34:33.984Z,23.00
2023-04-16T08:35:33.988Z,23.00
2023-04-16T08:36:34.040Z,23.02
2023-04-16T08:37:34.033Z,22.98
2023-04-16T08:38:34.061Z,23.01
2023-04-16T08:39:34.059Z,23.01
2023-04-16T08:40:34.097Z,23.02
2023-04-16T08:41:34.095Z,23.01
2023-04-16T08:42:34.126Z,23.02
2023-04-16T08:43:34.201Z,23.01
2023-04-16T08:44:34.155Z,23.00
2023-04-16T08:45:34.173Z,23.00
2023-04-16T08:46:34.235Z,23.00
2023-04-16T08:47:34.264Z,22.98
2023-04-16T08:48:34.533Z,23.01
2023-04-16T08:49:34.252Z,23.01
2023-04-16T08:50:34.286Z,23.00
2023-04-16T08:51:34.293Z,23.01
2023-04-16T08:52:34.322Z,23.01
2023-04-16T08:53:34.327Z,23.01
2023-04-16T08:54:34.386Z,23.02
2023-04-16T08:55:34.358Z,23.01
2023-04-16T08:56:34.401Z,23.00
2023-04-16T08:57:34.412Z,23.00
2023-04-16T08:58:34.467Z,23.02
2023-04-16T08:59:34.442Z,23.01
2023-04-16T09:00:34.462Z,23.02
2023-04-16T09:01:34.561Z,23.01
2023-04-16T09:02:34.788Z,23.00
2023-04-16T09:03:36.516Z,23.01
2023-04-16T09:04:34.688Z,23.00
2023-04-16T09:05:34.562Z,23.01
2023-04-16T09:06:34.610Z,23.01
2023-04-16T09:07:34.595Z,23.01
2023-04-16T09:08:34.656Z,23.00
2023-04-16T09:09:34.731Z,23.02
2023-04-16T09:10:34.700Z,23.01
2023-04-16T09:11:34.675Z,23.00
2023-04-16T09:12:34.713Z,23.01
2023-04-16T09:13:34.740Z,23.01
2023-04-16T09:14:34.756Z,23.00
2023-04-16T09:15:35.301Z,23.00
2023-04-16T09:16:34.871Z,23.00
2023-04-16T09:17:34.925Z,23.01
2023-04-16T09:18:34.907Z,23.00
2023-04-16T09:19:34.881Z,22.98
2023-04-16T09:20:34.915Z,23.00
2023-04-16T09:21:34.960Z,23.00
2023-04-16T09:22:34.973Z,23.00
2023-04-16T09:23:35.009Z,23.00
2023-04-16T09:24:35.053Z,23.00
2023-04-16T09:25:35.083Z,23.00
2023-04-16T09:26:35.102Z,23.00
2023-04-16T09:27:35.123Z,23.00
2023-04-16T09:28:35.546Z,23.01
2023-04-16T09:29:35.189Z,23.00
2023-04-16T09:30:35.233Z,23.02
2023-04-16T09:31:35.283Z,23.00
2023-04-16T09:32:35.331Z,22.98
2023-04-16T09:33:35.304Z,23.00
2023-04-16T09:34:35.314Z,22.98
2023-04-16T09:35:35.378Z,23.00
2023-04-16T09:36:35.400Z,22.98
2023-04-16T09:37:35.414Z,23.00
2023-04-16T09:38:35.431Z,22.98
2023-04-16T09:39:35.462Z,22.97
2023-04-16T09:40:35.514Z,23.00
2023-04-16T09:41:35.531Z,22.97
2023-04-16T09:42:35.549Z,23.00
2023-04-16T09:43:35.578Z,23.00
2023-04-16T09:44:35.624Z,22.98
2023-04-16T09:45:35.681Z,23.00
2023-04-16T09:46:35.661Z,22.98
2023-04-16T09:47:35.744Z,22.97
2023-04-16T09:48:35.720Z,22.98
2023-04-16T09:49:35.766Z,22.98
2023-04-16T09:50:35.819Z,23.01
2023-04-16T09:51:35.818Z,22.98
2023-04-16T09:52:35.831Z,22.98
2023-04-16T09:53:35.869Z,23.00
2023-04-16T09:54:35.910Z,23.01
2023-04-16T09:55:35.940Z,23.00
2023-04-16T09:56:35.954Z,23.02
2023-04-16T09:57:35.974Z,23.01
2023-04-16T09:58:36.006Z,23.00
2023-04-16T09:59:36.035Z,23.01
2023-04-16T10:00:36.079Z,23.01
2023-04-16T10:01:37.157Z,23.01
2023-04-16T10:02:36.135Z,23.01
2023-04-16T10:03:36.318Z,23.02
2023-04-16T10:04:36.087Z,23.02
2023-04-16T10:05:36.022Z,23.01
2023-04-16T10:06:36.024Z,23.01
2023-04-16T10:07:36.025Z,23.04
2023-04-16T10:08:36.045Z,23.04
2023-04-16T10:09:35.995Z,23.04
2023-04-16T10:10:35.989Z,23.02
2023-04-16T10:11:36.000Z,23.04
2023-04-16T10:12:35.982Z,23.02
2023-04-16T10:13:35.960Z,23.02
2023-04-16T10:14:35.964Z,23.04
2023-04-16T10:15:35.950Z,23.05
2023-04-16T10:16:35.975Z,23.04
2023-04-16T10:17:35.993Z,23.04
2023-04-16T10:18:35.954Z,23.07
2023-04-16T10:19:35.916Z,23.07
2023-04-16T10:20:35.905Z,23.05
2023-04-16T10:21:35.897Z,23.07
2023-04-16T10:22:35.931Z,23.07
2023-04-16T10:23:35.924Z,23.07
2023-04-16T10:24:35.970Z,23.08
2023-04-16T10:25:35.985Z,23.08
2023-04-16T10:26:35.986Z,23.10
2023-04-16T10:27:36.010Z,23.05
2023-04-16T10:28:36.017Z,23.05
2023-04-16T10:29:36.045Z,23.08
2023-04-16T10:30:36.110Z,23.05
2023-04-16T10:31:36.062Z,23.08
2023-04-16T10:32:36.108Z,23.05
2023-04-16T10:33:36.130Z,23.07
2023-04-16T10:34:36.108Z,23.07
2023-04-16T10:35:36.133Z,23.08
2023-04-16T10:36:36.159Z,23.08
2023-04-16T10:37:36.172Z,23.08
2023-04-16T10:38:36.199Z,23.07
2023-04-16T10:39:36.214Z,23.05
2023-04-16T10:40:36.242Z,23.08
2023-04-16T10:41:36.281Z,23.10
2023-04-16T10:42:36.254Z,23.07
2023-04-16T10:43:36.297Z,23.08
2023-04-16T10:44:36.310Z,23.08
2023-04-16T10:45:36.319Z,23.07
2023-04-16T10:46:36.458Z,23.08
2023-04-16T10:47:36.443Z,23.08
2023-04-16T10:48:48.788Z,23.08
2023-04-16T10:49:37.417Z,23.07
2023-04-16T10:50:36.374Z,23.08
2023-04-16T10:51:36.414Z,23.08
2023-04-16T10:52:36.335Z,23.08
2023-04-16T10:53:36.350Z,23.08
2023-04-16T10:54:36.342Z,23.08
2023-04-16T10:55:36.342Z,23.08
2023-04-16T10:56:36.330Z,23.08
2023-04-16T10:57:36.320Z,23.10
2023-04-16T10:58:36.317Z,23.08
2023-04-16T10:59:36.313Z,23.10
2023-04-16T11:00:36.305Z,23.08
2023-04-16T11:01:36.354Z,23.08
2023-04-16T11:02:36.347Z,23.10
2023-04-16T11:03:36.487Z,23.10
2023-04-16T11:04:36.413Z,23.08
2023-04-16T11:05:36.264Z,23.10
2023-04-16T11:06:36.265Z,23.08
2023-04-16T11:07:36.250Z,23.08
2023-04-16T11:08:44.258Z,23.11
2023-04-16T11:09:37.261Z,23.10
2023-04-16T11:10:36.214Z,23.11
2023-04-16T11:11:36.225Z,23.11
2023-04-16T11:12:36.240Z,23.08
2023-04-16T11:13:36.214Z,23.11
2023-04-16T11:14:36.187Z,23.11
2023-04-16T11:15:36.276Z,23.10
2023-04-16T11:16:36.161Z,23.12
2023-04-16T11:17:36.209Z,23.11
2023-04-16T11:18:36.161Z,23.10
2023-04-16T11:19:37.183Z,23.12
2023-04-16T11:20:36.141Z,23.12
2023-04-16T11:21:36.134Z,23.12
2023-04-16T11:22:36.602Z,23.11
2023-04-16T11:23:36.187Z,23.11
2023-04-16T11:24:36.146Z,23.10
2023-04-16T11:25:36.163Z,23.12
2023-04-16T11:26:36.116Z,23.11
2023-04-16T11:27:36.106Z,23.11
2023-04-16T11:28:36.082Z,23.11
2023-04-16T11:29:36.099Z,23.10
2023-04-16T11:30:36.077Z,23.12
2023-04-16T11:31:36.161Z,23.11
2023-04-16T11:32:36.087Z,23.11
2023-04-16T11:33:36.074Z,23.12
2023-04-16T11:34:36.046Z,23.10
2023-04-16T11:35:36.090Z,23.11
2023-04-16T11:36:36.039Z,23.10
2023-04-16T11:37:36.045Z,23.12
2023-04-16T11:38:36.021Z,23.11
2023-04-16T11:39:36.026Z,23.12
2023-04-16T11:40:36.019Z,23.11
2023-04-16T11:41:36.019Z,23.12
2023-04-16T11:42:36.055Z,23.10
2023-04-16T11:43:35.990Z,23.11
2023-04-16T11:44:36.005Z,23.12
2023-04-16T11:45:35.973Z,23.11
2023-04-16T11:46:36.041Z,23.11
2023-04-16T11:47:36.041Z,23.07
2023-04-16T11:48:35.965Z,23.11
2023-04-16T11:49:36.006Z,23.10
2023-04-16T11:50:35.993Z,23.10
2023-04-16T11:51:36.033Z,23.12
2023-04-16T11:52:36.042Z,23.10
2023-04-16T11:53:36.081Z,23.11
2023-04-16T11:54:36.082Z,23.08
2023-04-16T11:55:36.101Z,23.11
2023-04-16T11:56:36.105Z,23.10
2023-04-16T11:57:36.137Z,23.12
2023-04-16T11:58:36.151Z,23.11
2023-04-16T11:59:36.140Z,23.11
2023-04-16T12:00:36.160Z,23.10
2023-04-16T12:01:36.159Z,23.10
2023-04-16T12:02:36.235Z,23.11
2023-04-16T12:03:36.411Z,23.07
2023-04-16T12:04:36.337Z,23.12
2023-04-16T12:05:36.264Z,23.10
2023-04-16T12:06:36.254Z,23.08
2023-04-16T12:07:36.285Z,23.08
2023-04-16T12:08:36.300Z,23.11
2023-04-16T12:09:38.682Z,23.11
2023-04-16T12:10:36.309Z,23.11
2023-04-16T12:11:36.289Z,23.11
2023-04-16T12:12:36.295Z,23.08
2023-04-16T12:13:36.311Z,23.11
2023-04-16T12:14:36.291Z,23.08
2023-04-16T12:15:36.278Z,23.10
2023-04-16T12:16:36.276Z,23.07
2023-04-16T12:17:36.308Z,23.08
2023-04-16T12:18:36.244Z,23.07
2023-04-16T12:19:36.245Z,23.08
2023-04-16T12:20:36.257Z,23.07
2023-04-16T12:21:36.235Z,23.07
2023-04-16T12:22:37.326Z,23.08
2023-04-16T12:23:36.231Z,23.10
2023-04-16T12:24:36.223Z,23.08
2023-04-16T12:25:36.182Z,23.07
2023-04-16T12:26:36.224Z,23.04
2023-04-16T12:27:36.177Z,23.05
2023-04-16T12:28:36.192Z,23.05
2023-04-16T12:29:36.157Z,23.05
2023-04-16T12:30:36.193Z,23.07
2023-04-16T12:31:36.147Z,23.08
2023-04-16T12:32:36.238Z,23.07
2023-04-16T12:33:36.164Z,23.05
2023-04-16T12:34:48.208Z,23.05
2023-04-16T12:35:37.147Z,23.05
2023-04-16T12:36:36.104Z,23.07
2023-04-16T12:37:36.094Z,23.07
2023-04-16T12:38:36.106Z,23.05
2023-04-16T12:39:36.105Z,23.05
2023-04-16T12:40:36.113Z,23.04
2023-04-16T12:41:36.070Z,23.05
2023-04-16T12:42:36.114Z,23.05
2023-04-16T12:43:36.069Z,23.05
2023-04-16T12:44:36.060Z,23.05
2023-04-16T12:45:36.082Z,23.05
2023-04-16T12:46:36.070Z,23.02
2023-04-16T12:47:36.078Z,23.05
2023-04-16T12:48:36.066Z,23.05
2023-04-16T12:49:36.037Z,23.05
2023-04-16T12:50:36.009Z,23.04
2023-04-16T12:51:36.020Z,23.07
2023-04-16T12:52:36.014Z,23.04